sensor_id;sensor_type;location;lat;lon;timestamp;pressure;altitude;pressure_sealevel;temperature;humidity
24666;BME280;29726;53.532;-1.478;2022-10-18T00:01:52;101271.69;;;17.57;nan
24666;BME280;29726;53.532;-1.478;2022-10-18T00:04:17;101278.34;;;17.54;nan
24666;BME280;29726;53.532;-1.478;2022-10-18T00:06:43;101269.59;;;17.52;nan
24666;BME280;29726;53.532;-1.478;2022-10-18T00:09:08;101289.84;;;17.51;nan
24666;BME280;29726;53.532;-1.478;2022-10-18T00:11:34;101288.28;;;17.50;nan
24666;BME280;29726;53.532;-1.478;2022-10-18T00:16:25;101300.03;;;17.43;nan
24666;BME280;29726;53.532;-1.478;2022-10-18T00:18:51;101293.03;;;17.38;nan
24666;BME280;29726;53.532;-1.478;2022-10-18T00:21:19;101268.69;;;17.41;nan
24666;BME280;29726;53.532;-1.478;2022-10-18T00:23:46;101268.91;;;17.37;nan
24666;BME280;29726;53.532;-1.478;2022-10-18T00:26:20;101272.19;;;17.36;nan
24666;BME280;29726;53.532;-1.478;2022-10-18T00:28:48;101268.34;;;17.33;nan
24666;BME280;29726;53.532;-1.478;2022-10-18T00:31:17;101277.25;;;17.32;nan
24666;BME280;29726;53.532;-1.478;2022-10-18T00:33:44;101265.41;;;17.28;nan
24666;BME280;29726;53.532;-1.478;2022-10-18T00:36:10;101273.59;;;17.26;nan
24666;BME280;29726;53.532;-1.478;2022-10-18T00:38:37;101266.41;;;17.25;nan
24666;BME280;29726;53.532;-1.478;2022-10-18T00:41:04;101273.81;;;17.22;nan
24666;BME280;29726;53.532;-1.478;2022-10-18T00:43:30;101278.41;;;17.20;nan
24666;BME280;29726;53.532;-1.478;2022-10-18T00:45:55;101290.19;;;17.18;nan
24666;BME280;29726;53.532;-1.478;2022-10-18T00:48:21;101297.56;;;17.16;nan
24666;BME280;29726;53.532;-1.478;2022-10-18T00:53:18;101307.53;;;17.11;nan
24666;BME280;29726;53.532;-1.478;2022-10-18T00:55:44;101304.44;;;17.09;nan
24666;BME280;29726;53.532;-1.478;2022-10-18T00:58:12;101306.19;;;17.07;nan
24666;BME280;29726;53.532;-1.478;2022-10-18T01:00:38;101303.09;;;17.05;nan
24666;BME280;29726;53.532;-1.478;2022-10-18T01:03:05;101300.00;;;17.03;nan
24666;BME280;29726;53.532;-1.478;2022-10-18T01:08:38;101312.25;;;17.00;nan
24666;BME280;29726;53.532;-1.478;2022-10-18T01:11:29;101295.53;;;16.96;nan
24666;BME280;29726;53.532;-1.478;2022-10-18T01:14:29;101303.72;;;16.94;nan
24666;BME280;29726;53.532;-1.478;2022-10-18T01:33:20;101310.38;;;16.77;nan
24666;BME280;29726;53.532;-1.478;2022-10-18T01:35:51;101318.56;;;16.75;nan
24666;BME280;29726;53.532;-1.478;2022-10-18T01:38:20;101320.31;;;16.73;nan
24666;BME280;29726;53.532;-1.478;2022-10-18T01:40:49;101312.34;;;16.71;nan
24666;BME280;29726;53.532;-1.478;2022-10-18T01:43:16;101311.28;;;16.69;nan
24666;BME280;29726;53.532;-1.478;2022-10-18T01:45:43;101312.56;;;16.68;nan
24666;BME280;29726;53.532;-1.478;2022-10-18T01:48:10;101319.16;;;16.65;nan
24666;BME280;29726;53.532;-1.478;2022-10-18T01:50:37;101316.84;;;16.63;nan
24666;BME280;29726;53.532;-1.478;2022-10-18T01:53:02;101320.53;;;16.55;nan
24666;BME280;29726;53.532;-1.478;2022-10-18T01:55:41;101323.94;;;16.59;nan
24666;BME280;29726;53.532;-1.478;2022-10-18T02:00:58;101326.97;;;16.55;nan
24666;BME280;29726;53.532;-1.478;2022-10-18T02:03:28;101341.75;;;16.50;nan
24666;BME280;29726;53.532;-1.478;2022-10-18T02:08:38;101333.78;;;16.49;nan
24666;BME280;29726;53.532;-1.478;2022-10-18T02:16:52;101335.72;;;16.43;nan
24666;BME280;29726;53.532;-1.478;2022-10-18T02:24:17;101356.63;;;16.36;nan
24666;BME280;29726;53.532;-1.478;2022-10-18T02:26:44;101378.38;;;16.36;nan
24666;BME280;29726;53.532;-1.478;2022-10-18T02:29:10;101379.34;;;16.33;nan
24666;BME280;29726;53.532;-1.478;2022-10-18T02:31:40;101382.16;;;16.33;nan
24666;BME280;29726;53.532;-1.478;2022-10-18T02:34:47;101392.84;;;16.29;nan
24666;BME280;29726;53.532;-1.478;2022-10-18T02:37:15;101393.63;;;16.29;nan
24666;BME280;29726;53.532;-1.478;2022-10-18T02:39:49;101384.09;;;16.27;nan
24666;BME280;29726;53.532;-1.478;2022-10-18T02:44:40;101388.34;;;16.22;nan
24666;BME280;29726;53.532;-1.478;2022-10-18T02:47:07;101432.69;;;16.22;nan
24666;BME280;29726;53.532;-1.478;2022-10-18T02:49:33;101393.41;;;16.18;nan
24666;BME280;29726;53.532;-1.478;2022-10-18T02:56:49;101385.66;;;16.13;nan
24666;BME280;29726;53.532;-1.478;2022-10-18T02:59:15;101379.25;;;16.13;nan
24666;BME280;29726;53.532;-1.478;2022-10-18T03:01:41;101400.19;;;16.12;nan
24666;BME280;29726;53.532;-1.478;2022-10-18T03:04:06;101397.09;;;16.10;nan
24666;BME280;29726;53.532;-1.478;2022-10-18T03:06:32;101405.25;;;16.08;nan
24666;BME280;29726;53.532;-1.478;2022-10-18T03:08:58;101392.44;;;16.07;nan
24666;BME280;29726;53.532;-1.478;2022-10-18T03:11:23;101372.91;;;16.03;nan
24666;BME280;29726;53.532;-1.478;2022-10-18T03:13:49;101392.63;;;16.03;nan
24666;BME280;29726;53.532;-1.478;2022-10-18T03:16:17;101395.94;;;16.02;nan
24666;BME280;29726;53.532;-1.478;2022-10-18T03:21:08;101389.13;;;15.94;nan
24666;BME280;29726;53.532;-1.478;2022-10-18T03:23:34;101405.81;;;15.97;nan
24666;BME280;29726;53.532;-1.478;2022-10-18T03:26:00;101409.88;;;15.96;nan
24666;BME280;29726;53.532;-1.478;2022-10-18T03:28:25;101402.91;;;15.92;nan
24666;BME280;29726;53.532;-1.478;2022-10-18T03:30:51;101407.00;;;15.91;nan
24666;BME280;29726;53.532;-1.478;2022-10-18T03:33:16;101406.19;;;15.90;nan
24666;BME280;29726;53.532;-1.478;2022-10-18T03:38:07;101398.41;;;15.85;nan
24666;BME280;29726;53.532;-1.478;2022-10-18T03:40:32;101402.50;;;15.84;nan
24666;BME280;29726;53.532;-1.478;2022-10-18T03:42:58;101420.38;;;15.81;nan
24666;BME280;29726;53.532;-1.478;2022-10-18T03:45:23;101403.47;;;15.81;nan
24666;BME280;29726;53.532;-1.478;2022-10-18T03:47:49;101405.19;;;15.79;nan
24666;BME280;29726;53.532;-1.478;2022-10-18T03:50:14;101409.28;;;15.78;nan
24666;BME280;29726;53.532;-1.478;2022-10-18T03:55:05;101417.44;;;15.76;nan
24666;BME280;29726;53.532;-1.478;2022-10-18T03:57:31;101417.59;;;15.72;nan
24666;BME280;29726;53.532;-1.478;2022-10-18T03:59:56;101420.91;;;15.71;nan
24666;BME280;29726;53.532;-1.478;2022-10-18T04:02:21;101434.69;;;15.69;nan
24666;BME280;29726;53.532;-1.478;2022-10-18T04:04:47;101428.28;;;15.68;nan
24666;BME280;29726;53.532;-1.478;2022-10-18T04:07:12;101423.59;;;15.65;nan
24666;BME280;29726;53.532;-1.478;2022-10-18T04:09:38;101434.06;;;15.65;nan
24666;BME280;29726;53.532;-1.478;2022-10-18T04:14:28;101438.34;;;15.60;nan
24666;BME280;29726;53.532;-1.478;2022-10-18T04:16:54;101440.06;;;15.58;nan
24666;BME280;29726;53.532;-1.478;2022-10-18T04:19:19;101444.94;;;15.57;nan
24666;BME280;29726;53.532;-1.478;2022-10-18T04:21:44;101445.09;;;15.54;nan
24666;BME280;29726;53.532;-1.478;2022-10-18T04:24:10;101442.00;;;15.52;nan
24666;BME280;29726;53.532;-1.478;2022-10-18T04:26:35;101453.25;;;15.52;nan
24666;BME280;29726;53.532;-1.478;2022-10-18T04:29:00;101452.66;;;15.48;nan
24666;BME280;29726;53.532;-1.478;2022-10-18T04:31:26;101456.72;;;15.47;nan
24666;BME280;29726;53.532;-1.478;2022-10-18T04:33:51;101460.81;;;15.46;nan
24666;BME280;29726;53.532;-1.478;2022-10-18T04:36:17;101453.63;;;15.45;nan
24666;BME280;29726;53.532;-1.478;2022-10-18T04:38:42;101461.72;;;15.43;nan
24666;BME280;29726;53.532;-1.478;2022-10-18T04:41:07;101465.81;;;15.42;nan
24666;BME280;29726;53.532;-1.478;2022-10-18T04:43:33;101466.75;;;15.39;nan
24666;BME280;29726;53.532;-1.478;2022-10-18T04:45:58;101471.63;;;15.38;nan
24666;BME280;29726;53.532;-1.478;2022-10-18T04:48:24;101478.22;;;15.35;nan
24666;BME280;29726;53.532;-1.478;2022-10-18T04:53:16;101474.31;;;15.33;nan
24666;BME280;29726;53.532;-1.478;2022-10-18T04:55:47;101476.03;;;15.30;nan
24666;BME280;29726;53.532;-1.478;2022-10-18T04:58:13;101484.16;;;15.28;nan
24666;BME280;29726;53.532;-1.478;2022-10-18T05:00:40;101468.22;;;15.25;nan
24666;BME280;29726;53.532;-1.478;2022-10-18T05:03:06;101473.06;;;15.25;nan
24666;BME280;29726;53.532;-1.478;2022-10-18T05:05:31;101468.41;;;15.22;nan
24666;BME280;29726;53.532;-1.478;2022-10-18T05:07:57;101461.97;;;15.21;nan
24666;BME280;29726;53.532;-1.478;2022-10-18T05:12:47;101466.22;;;15.17;nan
24666;BME280;29726;53.532;-1.478;2022-10-18T05:15:13;101484.03;;;15.14;nan
24666;BME280;29726;53.532;-1.478;2022-10-18T05:17:39;101483.28;;;15.13;nan
24666;BME280;29726;53.532;-1.478;2022-10-18T05:22:29;101488.31;;;15.09;nan
24666;BME280;29726;53.532;-1.478;2022-10-18T05:27:20;101477.22;;;15.06;nan
24666;BME280;29726;53.532;-1.478;2022-10-18T05:29:45;101479.72;;;15.04;nan
24666;BME280;29726;53.532;-1.478;2022-10-18T05:32:11;101487.06;;;15.01;nan
24666;BME280;29726;53.532;-1.478;2022-10-18T05:34:36;101477.56;;;14.99;nan
24666;BME280;29726;53.532;-1.478;2022-10-18T05:37:02;101504.13;;;14.98;nan
24666;BME280;29726;53.532;-1.478;2022-10-18T05:39:27;101500.22;;;14.96;nan
24666;BME280;29726;53.532;-1.478;2022-10-18T05:41:53;101496.31;;;14.93;nan
24666;BME280;29726;53.532;-1.478;2022-10-18T05:44:18;101493.97;;;14.92;nan
24666;BME280;29726;53.532;-1.478;2022-10-18T05:46:44;101493.38;;;14.88;nan
24666;BME280;29726;53.532;-1.478;2022-10-18T05:49:11;101490.25;;;14.86;nan
24666;BME280;29726;53.532;-1.478;2022-10-18T05:51:37;101493.53;;;14.84;nan
24666;BME280;29726;53.532;-1.478;2022-10-18T05:54:02;101502.44;;;14.83;nan
24666;BME280;29726;53.532;-1.478;2022-10-18T05:58:53;101489.81;;;14.78;nan
24666;BME280;29726;53.532;-1.478;2022-10-18T06:01:19;101487.94;;;14.75;nan
24666;BME280;29726;53.532;-1.478;2022-10-18T06:03:44;101490.75;;;14.75;nan
24666;BME280;29726;53.532;-1.478;2022-10-18T06:06:11;101486.84;;;14.73;nan
24666;BME280;29726;53.532;-1.478;2022-10-18T06:08:38;101487.78;;;14.70;nan
24666;BME280;29726;53.532;-1.478;2022-10-18T06:11:29;101484.69;;;14.68;nan
24666;BME280;29726;53.532;-1.478;2022-10-18T06:13:55;101487.94;;;14.66;nan
24666;BME280;29726;53.532;-1.478;2022-10-18T06:16:23;101495.31;;;14.64;nan
24666;BME280;29726;53.532;-1.478;2022-10-18T06:21:15;101493.91;;;14.59;nan
24666;BME280;29726;53.532;-1.478;2022-10-18T06:23:40;101509.22;;;14.58;nan
24666;BME280;29726;53.532;-1.478;2022-10-18T06:26:07;101505.78;;;14.54;nan
24666;BME280;29726;53.532;-1.478;2022-10-18T06:28:35;101529.50;;;14.53;nan
24666;BME280;29726;53.532;-1.478;2022-10-18T06:31:01;101519.19;;;14.50;nan
24666;BME280;29726;53.532;-1.478;2022-10-18T06:33:26;101512.00;;;14.49;nan
24666;BME280;29726;53.532;-1.478;2022-10-18T06:35:59;101516.06;;;14.48;nan
24666;BME280;29726;53.532;-1.478;2022-10-18T06:40:51;101515.44;;;14.44;nan
24666;BME280;29726;53.532;-1.478;2022-10-18T06:43:16;101518.75;;;14.43;nan
24666;BME280;29726;53.532;-1.478;2022-10-18T06:45:42;101521.25;;;14.41;nan
24666;BME280;29726;53.532;-1.478;2022-10-18T06:48:07;101520.94;;;14.39;nan
24666;BME280;29726;53.532;-1.478;2022-10-18T06:50:33;101539.03;;;14.38;nan
24666;BME280;29726;53.532;-1.478;2022-10-18T06:52:58;101535.13;;;14.35;nan
24666;BME280;29726;53.532;-1.478;2022-10-18T06:55:23;101532.78;;;14.34;nan
24666;BME280;29726;53.532;-1.478;2022-10-18T06:57:49;101547.31;;;14.32;nan
24666;BME280;29726;53.532;-1.478;2022-10-18T07:02:39;101553.06;;;14.29;nan
24666;BME280;29726;53.532;-1.478;2022-10-18T07:05:06;101553.56;;;14.27;nan
24666;BME280;29726;53.532;-1.478;2022-10-18T07:07:31;101571.63;;;14.26;nan
24666;BME280;29726;53.532;-1.478;2022-10-18T07:12:22;101577.41;;;14.23;nan
24666;BME280;29726;53.532;-1.478;2022-10-18T07:14:47;101567.25;;;14.16;nan
24666;BME280;29726;53.532;-1.478;2022-10-18T07:19:38;101582.41;;;14.19;nan
24666;BME280;29726;53.532;-1.478;2022-10-18T07:22:03;101580.84;;;14.18;nan
24666;BME280;29726;53.532;-1.478;2022-10-18T07:24:29;101584.91;;;14.17;nan
24666;BME280;29726;53.532;-1.478;2022-10-18T07:29:19;101605.03;;;14.15;nan
24666;BME280;29726;53.532;-1.478;2022-10-18T07:31:45;101615.44;;;14.15;nan
24666;BME280;29726;53.532;-1.478;2022-10-18T07:36:36;101633.53;;;14.14;nan
24666;BME280;29726;53.532;-1.478;2022-10-18T07:41:27;101619.47;;;14.14;nan
24666;BME280;29726;53.532;-1.478;2022-10-18T07:43:53;101625.91;;;14.14;nan
24666;BME280;29726;53.532;-1.478;2022-10-18T07:46:20;101612.63;;;14.15;nan
24666;BME280;29726;53.532;-1.478;2022-10-18T07:51:11;101621.03;;;14.15;nan
24666;BME280;29726;53.532;-1.478;2022-10-18T07:56:08;101636.22;;;14.17;nan
24666;BME280;29726;53.532;-1.478;2022-10-18T07:58:40;101627.34;;;14.19;nan
24666;BME280;29726;53.532;-1.478;2022-10-18T08:05:58;101628.75;;;14.23;nan
24666;BME280;29726;53.532;-1.478;2022-10-18T08:08:23;101632.66;;;14.26;nan
24666;BME280;29726;53.532;-1.478;2022-10-18T08:10:49;101637.47;;;14.25;nan
24666;BME280;29726;53.532;-1.478;2022-10-18T08:13:15;101639.69;;;14.30;nan
24666;BME280;29726;53.532;-1.478;2022-10-18T08:20:31;101625.78;;;14.36;nan
24666;BME280;29726;53.532;-1.478;2022-10-18T08:22:58;101615.34;;;14.36;nan
24666;BME280;29726;53.532;-1.478;2022-10-18T08:25:23;101621.75;;;14.37;nan
24666;BME280;29726;53.532;-1.478;2022-10-18T08:27:49;101605.81;;;14.34;nan
24666;BME280;29726;53.532;-1.478;2022-10-18T08:30:14;101616.91;;;14.37;nan
24666;BME280;29726;53.532;-1.478;2022-10-18T08:32:40;101615.22;;;14.40;nan
24666;BME280;29726;53.532;-1.478;2022-10-18T08:35:05;101611.31;;;14.37;nan
24666;BME280;29726;53.532;-1.478;2022-10-18T08:39:57;101626.13;;;14.47;nan
24666;BME280;29726;53.532;-1.478;2022-10-18T08:42:46;101648.44;;;14.50;nan
24666;BME280;29726;53.532;-1.478;2022-10-18T08:47:41;101634.09;;;14.57;nan
24666;BME280;29726;53.532;-1.478;2022-10-18T08:50:18;101639.09;;;14.62;nan
24666;BME280;29726;53.532;-1.478;2022-10-18T08:58:03;101636.94;;;14.75;nan
24666;BME280;29726;53.532;-1.478;2022-10-18T09:00:41;101651.91;;;14.81;nan
24666;BME280;29726;53.532;-1.478;2022-10-18T09:06:02;101652.22;;;14.92;nan
24666;BME280;29726;53.532;-1.478;2022-10-18T09:09:22;101653.63;;;14.97;nan
24666;BME280;29726;53.532;-1.478;2022-10-18T09:11:42;101664.56;;;15.03;nan
24666;BME280;29726;53.532;-1.478;2022-10-18T09:14:41;101669.09;;;15.10;nan
24666;BME280;29726;53.532;-1.478;2022-10-18T09:19:58;101669.41;;;15.21;nan
24666;BME280;29726;53.532;-1.478;2022-10-18T09:22:55;101658.59;;;15.28;nan
24666;BME280;29726;53.532;-1.478;2022-10-18T09:27:55;101655.59;;;15.41;nan
24666;BME280;29726;53.532;-1.478;2022-10-18T09:33:24;101658.72;;;15.52;nan
24666;BME280;29726;53.532;-1.478;2022-10-18T09:35:58;101645.41;;;15.61;nan
24666;BME280;29726;53.532;-1.478;2022-10-18T09:38:30;101641.47;;;15.68;nan
24666;BME280;29726;53.532;-1.478;2022-10-18T09:41:07;101641.13;;;15.75;nan
24666;BME280;29726;53.532;-1.478;2022-10-18T09:43:48;101654.84;;;15.82;nan
24666;BME280;29726;53.532;-1.478;2022-10-18T09:46:18;101645.75;;;15.87;nan
24666;BME280;29726;53.532;-1.478;2022-10-18T09:51:16;101640.53;;;16.03;nan
24666;BME280;29726;53.532;-1.478;2022-10-18T09:54:20;101640.63;;;16.09;nan
24666;BME280;29726;53.532;-1.478;2022-10-18T09:57:03;101647.78;;;16.19;nan
24666;BME280;29726;53.532;-1.478;2022-10-18T09:59:36;101655.41;;;16.27;nan
24666;BME280;29726;53.532;-1.478;2022-10-18T10:02:03;101653.50;;;16.33;nan
24666;BME280;29726;53.532;-1.478;2022-10-18T10:04:29;101651.44;;;16.43;nan
24666;BME280;29726;53.532;-1.478;2022-10-18T10:06:56;101667.97;;;16.50;nan
24666;BME280;29726;53.532;-1.478;2022-10-18T10:11:56;101653.47;;;16.66;nan
24666;BME280;29726;53.532;-1.478;2022-10-18T10:14:24;101657.97;;;16.72;nan
24666;BME280;29726;53.532;-1.478;2022-10-18T10:17:03;101658.34;;;16.79;nan
24666;BME280;29726;53.532;-1.478;2022-10-18T10:22:39;101675.13;;;16.97;nan
24666;BME280;29726;53.532;-1.478;2022-10-18T10:25:06;101675.53;;;17.05;nan
24666;BME280;29726;53.532;-1.478;2022-10-18T10:27:44;101676.72;;;17.13;nan
24666;BME280;29726;53.532;-1.478;2022-10-18T10:32:52;101672.63;;;17.28;nan
24666;BME280;29726;53.532;-1.478;2022-10-18T10:37:49;101670.94;;;17.45;nan
24666;BME280;29726;53.532;-1.478;2022-10-18T10:45:21;101673.94;;;17.71;nan
24666;BME280;29726;53.532;-1.478;2022-10-18T10:47:48;101671.69;;;17.75;nan
24666;BME280;29726;53.532;-1.478;2022-10-18T10:50:23;101676.56;;;17.89;nan
24666;BME280;29726;53.532;-1.478;2022-10-18T10:55:17;101679.84;;;18.02;nan
24666;BME280;29726;53.532;-1.478;2022-10-18T10:57:45;101711.78;;;18.08;nan
24666;BME280;29726;53.532;-1.478;2022-10-18T11:03:25;101681.91;;;18.21;nan
24666;BME280;29726;53.532;-1.478;2022-10-18T11:05:54;101677.47;;;18.29;nan
24666;BME280;29726;53.532;-1.478;2022-10-18T11:08:28;101652.88;;;18.35;nan
24666;BME280;29726;53.532;-1.478;2022-10-18T11:13:51;101658.25;;;18.53;nan
24666;BME280;29726;53.532;-1.478;2022-10-18T11:16:40;101673.03;;;18.62;nan
24666;BME280;29726;53.532;-1.478;2022-10-18T11:19:49;101652.72;;;18.64;nan
24666;BME280;29726;53.532;-1.478;2022-10-18T11:24:46;101683.84;;;18.84;nan
24666;BME280;29726;53.532;-1.478;2022-10-18T11:32:58;101651.25;;;19.14;nan
24666;BME280;29726;53.532;-1.478;2022-10-18T11:35:49;101657.28;;;19.21;nan
24666;BME280;29726;53.532;-1.478;2022-10-18T11:38:46;101653.50;;;19.30;nan
24666;BME280;29726;53.532;-1.478;2022-10-18T11:43:59;101651.63;;;19.47;nan
24666;BME280;29726;53.532;-1.478;2022-10-18T12:00:34;101666.44;;;19.93;nan
24666;BME280;29726;53.532;-1.478;2022-10-18T12:03:17;101656.19;;;20.01;nan
24666;BME280;29726;53.532;-1.478;2022-10-18T12:05:48;101659.84;;;20.07;nan
24666;BME280;29726;53.532;-1.478;2022-10-18T12:08:40;101647.53;;;20.15;nan
24666;BME280;29726;53.532;-1.478;2022-10-18T12:11:33;101652.22;;;20.23;nan
24666;BME280;29726;53.532;-1.478;2022-10-18T12:16:36;101639.94;;;20.37;nan
24666;BME280;29726;53.532;-1.478;2022-10-18T12:19:12;101616.75;;;20.44;nan
24666;BME280;29726;53.532;-1.478;2022-10-18T12:24:14;101632.56;;;20.56;nan
24666;BME280;29726;53.532;-1.478;2022-10-18T12:26:42;101636.69;;;20.61;nan
24666;BME280;29726;53.532;-1.478;2022-10-18T12:29:36;101643.44;;;20.69;nan
24666;BME280;29726;53.532;-1.478;2022-10-18T12:32:13;101639.84;;;20.74;nan
24666;BME280;29726;53.532;-1.478;2022-10-18T12:39:52;101633.75;;;20.92;nan
24666;BME280;29726;53.532;-1.478;2022-10-18T12:42:30;101632.47;;;20.98;nan
24666;BME280;29726;53.532;-1.478;2022-10-18T12:47:43;101643.06;;;21.09;nan
24666;BME280;29726;53.532;-1.478;2022-10-18T12:53:02;101629.66;;;21.20;nan
24666;BME280;29726;53.532;-1.478;2022-10-18T12:55:32;101634.59;;;21.25;nan
24666;BME280;29726;53.532;-1.478;2022-10-18T12:57:59;101627.63;;;21.32;nan
24666;BME280;29726;53.532;-1.478;2022-10-18T13:21:55;101651.94;;;21.77;nan
24666;BME280;29726;53.532;-1.478;2022-10-18T13:27:09;101650.41;;;21.87;nan
24666;BME280;29726;53.532;-1.478;2022-10-18T13:30:24;101662.31;;;21.91;nan
24666;BME280;29726;53.532;-1.478;2022-10-18T13:41:28;101659.19;;;22.10;nan
24666;BME280;29726;53.532;-1.478;2022-10-18T14:10:56;101667.91;;;22.45;nan
24666;BME280;29726;53.532;-1.478;2022-10-18T14:13:27;101667.66;;;22.49;nan
24666;BME280;29726;53.532;-1.478;2022-10-18T14:16:03;101660.91;;;22.52;nan
24666;BME280;29726;53.532;-1.478;2022-10-18T14:18:33;101677.72;;;22.55;nan
24666;BME280;29726;53.532;-1.478;2022-10-18T14:21:04;101680.81;;;22.57;nan
24666;BME280;29726;53.532;-1.478;2022-10-18T14:23:36;101661.91;;;22.60;nan
24666;BME280;29726;53.532;-1.478;2022-10-18T14:26:12;101668.13;;;22.64;nan
24666;BME280;29726;53.532;-1.478;2022-10-18T14:31:05;101717.53;;;22.66;nan
24666;BME280;29726;53.532;-1.478;2022-10-18T14:33:38;101685.41;;;22.71;nan
24666;BME280;29726;53.532;-1.478;2022-10-18T14:41:15;101686.44;;;22.79;nan
24666;BME280;29726;53.532;-1.478;2022-10-18T14:43:42;101688.75;;;22.81;nan
24666;BME280;29726;53.532;-1.478;2022-10-18T14:46:25;101694.19;;;22.84;nan
24666;BME280;29726;53.532;-1.478;2022-10-18T14:56:27;101692.56;;;22.94;nan
24666;BME280;29726;53.532;-1.478;2022-10-18T14:58:55;101674.22;;;22.90;nan
24666;BME280;29726;53.532;-1.478;2022-10-18T15:01:24;101682.47;;;22.99;nan
24666;BME280;29726;53.532;-1.478;2022-10-18T15:03:58;101695.41;;;23.00;nan
24666;BME280;29726;53.532;-1.478;2022-10-18T15:08:54;101686.59;;;23.03;nan
24666;BME280;29726;53.532;-1.478;2022-10-18T15:13:53;101702.63;;;23.06;nan
24666;BME280;29726;53.532;-1.478;2022-10-18T15:19:51;101718.44;;;23.07;nan
24666;BME280;29726;53.532;-1.478;2022-10-18T15:21:58;101705.72;;;23.08;nan
24666;BME280;29726;53.532;-1.478;2022-10-18T15:24:38;101728.78;;;23.10;nan
24666;BME280;29726;53.532;-1.478;2022-10-18T15:27:21;101723.06;;;23.10;nan
24666;BME280;29726;53.532;-1.478;2022-10-18T15:29:48;101723.88;;;23.11;nan
24666;BME280;29726;53.532;-1.478;2022-10-18T15:34:53;101725.44;;;23.12;nan
24666;BME280;29726;53.532;-1.478;2022-10-18T15:37:31;101722.84;;;23.14;nan
24666;BME280;29726;53.532;-1.478;2022-10-18T15:42:47;101740.69;;;23.14;nan
24666;BME280;29726;53.532;-1.478;2022-10-18T15:48:26;101721.00;;;23.16;nan
24666;BME280;29726;53.532;-1.478;2022-10-18T15:51:00;101727.47;;;23.17;nan
24666;BME280;29726;53.532;-1.478;2022-10-18T15:53:44;101734.72;;;23.18;nan
24666;BME280;29726;53.532;-1.478;2022-10-18T15:58:51;101735.78;;;23.15;nan
24666;BME280;29726;53.532;-1.478;2022-10-18T16:01:20;101761.19;;;23.13;nan
24666;BME280;29726;53.532;-1.478;2022-10-18T16:03:48;101751.34;;;23.14;nan
24666;BME280;29726;53.532;-1.478;2022-10-18T16:06:15;101750.53;;;23.13;nan
24666;BME280;29726;53.532;-1.478;2022-10-18T16:08:43;101749.78;;;23.13;nan
24666;BME280;29726;53.532;-1.478;2022-10-18T16:11:17;101753.94;;;23.12;nan
24666;BME280;29726;53.532;-1.478;2022-10-18T16:13:43;101756.50;;;23.10;nan
24666;BME280;29726;53.532;-1.478;2022-10-18T16:16:23;101769.97;;;23.09;nan
24666;BME280;29726;53.532;-1.478;2022-10-18T16:18:50;101791.72;;;23.07;nan
24666;BME280;29726;53.532;-1.478;2022-10-18T16:21:30;101746.13;;;23.07;nan
24666;BME280;29726;53.532;-1.478;2022-10-18T16:23:56;101753.66;;;23.04;nan
24666;BME280;29726;53.532;-1.478;2022-10-18T16:26:23;101758.56;;;23.04;nan
24666;BME280;29726;53.532;-1.478;2022-10-18T16:28:49;101754.72;;;23.01;nan
24666;BME280;29726;53.532;-1.478;2022-10-18T16:33:41;101767.16;;;22.98;nan
24666;BME280;29726;53.532;-1.478;2022-10-18T16:36:17;101772.06;;;22.98;nan
24666;BME280;29726;53.532;-1.478;2022-10-18T16:38:44;101775.19;;;22.94;nan
24666;BME280;29726;53.532;-1.478;2022-10-18T16:43:35;101780.63;;;22.92;nan
24666;BME280;29726;53.532;-1.478;2022-10-18T16:48:26;101789.97;;;22.87;nan
24666;BME280;29726;53.532;-1.478;2022-10-18T16:50:53;101795.94;;;22.84;nan
24666;BME280;29726;53.532;-1.478;2022-10-18T16:53:20;101789.97;;;22.82;nan
24666;BME280;29726;53.532;-1.478;2022-10-18T16:55:52;101798.81;;;22.78;nan
24666;BME280;29726;53.532;-1.478;2022-10-18T16:58:19;101829.88;;;22.76;nan
24666;BME280;29726;53.532;-1.478;2022-10-18T17:00:44;101801.66;;;22.73;nan
24666;BME280;29726;53.532;-1.478;2022-10-18T17:03:12;101810.72;;;22.71;nan
24666;BME280;29726;53.532;-1.478;2022-10-18T17:05:38;101818.25;;;22.69;nan
24666;BME280;29726;53.532;-1.478;2022-10-18T17:08:03;101824.19;;;22.65;nan
24666;BME280;29726;53.532;-1.478;2022-10-18T17:10:29;101831.72;;;22.63;nan
24666;BME280;29726;53.532;-1.478;2022-10-18T17:12:54;101829.13;;;22.54;nan
24666;BME280;29726;53.532;-1.478;2022-10-18T17:15:19;101838.72;;;22.56;nan
24666;BME280;29726;53.532;-1.478;2022-10-18T17:17:45;101848.28;;;22.53;nan
24666;BME280;29726;53.532;-1.478;2022-10-18T17:20:21;101864.56;;;22.47;nan
24666;BME280;29726;53.532;-1.478;2022-10-18T17:22:47;101850.88;;;22.46;nan
24666;BME280;29726;53.532;-1.478;2022-10-18T17:25:13;101856.81;;;22.42;nan
24666;BME280;29726;53.532;-1.478;2022-10-18T17:27:38;101849.56;;;22.41;nan
24666;BME280;29726;53.532;-1.478;2022-10-18T17:30:04;101859.91;;;22.39;nan
24666;BME280;29726;53.532;-1.478;2022-10-18T17:32:30;101862.22;;;22.35;nan
24666;BME280;29726;53.532;-1.478;2022-10-18T17:34:55;101865.59;;;22.33;nan
24666;BME280;29726;53.532;-1.478;2022-10-18T17:37:20;101853.69;;;22.29;nan
24666;BME280;29726;53.532;-1.478;2022-10-18T17:39:46;101849.28;;;22.28;nan
24666;BME280;29726;53.532;-1.478;2022-10-18T17:42:11;101849.28;;;22.23;nan
24666;BME280;29726;53.532;-1.478;2022-10-18T17:44:37;101854.19;;;22.22;nan
24666;BME280;29726;53.532;-1.478;2022-10-18T17:47:02;101855.22;;;22.19;nan
24666;BME280;29726;53.532;-1.478;2022-10-18T17:49:28;101854.97;;;22.17;nan
24666;BME280;29726;53.532;-1.478;2022-10-18T17:51:53;101853.16;;;22.14;nan
24666;BME280;29726;53.532;-1.478;2022-10-18T17:54:18;101848.50;;;22.11;nan
24666;BME280;29726;53.532;-1.478;2022-10-18T17:56:44;101857.53;;;22.10;nan
24666;BME280;29726;53.532;-1.478;2022-10-18T18:01:35;101853.13;;;22.03;nan
24666;BME280;29726;53.532;-1.478;2022-10-18T18:04:01;101855.69;;;22.01;nan
24666;BME280;29726;53.532;-1.478;2022-10-18T18:06:29;101860.88;;;21.98;nan
24666;BME280;29726;53.532;-1.478;2022-10-18T18:08:56;101859.59;;;21.93;nan